createdAt,value
2022-12-11T00:00:44.982Z,45.72
2022-12-11T00:03:15.876Z,46.65
2022-12-11T00:05:43.862Z,46.40
2022-12-11T00:08:11.088Z,44.80
2022-12-11T00:10:38.245Z,44.50
2022-12-11T00:13:04.927Z,43.70
2022-12-11T00:15:31.726Z,45.10
2022-12-11T00:17:58.239Z,44.97
2022-12-11T00:20:24.772Z,43.88
2022-12-11T00:22:51.161Z,42.05
2022-12-11T00:25:17.518Z,42.97
2022-12-11T00:27:45.905Z,42.97
2022-12-11T00:30:12.770Z,42.67
2022-12-11T00:32:39.149Z,38.90
2022-12-11T00:35:05.899Z,40.15
2022-12-11T00:37:32.351Z,41.33
2022-12-11T00:39:58.797Z,39.63
2022-12-11T00:42:25.188Z,40.22
2022-12-11T00:44:52.102Z,37.55
2022-12-11T00:47:18.478Z,38.58
2022-12-11T00:49:49.630Z,36.70
2022-12-11T00:52:17.696Z,37.25
2022-12-11T00:54:44.313Z,36.42
2022-12-11T00:57:10.685Z,36.08
2022-12-11T00:59:37.096Z,35.35
2022-12-11T01:02:03.508Z,34.33
2022-12-11T01:04:30.011Z,33.47
2022-12-11T01:06:56.487Z,35.45
2022-12-11T01:09:41.427Z,32.97
2022-12-11T01:12:07.776Z,32.15
2022-12-11T01:14:34.189Z,30.45
2022-12-11T01:17:00.629Z,32.20
2022-12-11T01:19:27.037Z,33.85
2022-12-11T01:21:53.554Z,31.63
2022-12-11T01:24:19.945Z,32.08
2022-12-11T01:26:46.310Z,32.53
2022-12-11T01:29:12.696Z,31.23
2022-12-11T01:31:39.172Z,33.53
2022-12-11T01:34:05.492Z,32.13
2022-12-11T01:36:31.857Z,34.17
2022-12-11T01:38:58.219Z,32.45
2022-12-11T01:41:24.632Z,31.13
2022-12-11T01:44:16.054Z,33.08
2022-12-11T01:46:43.092Z,32.65
2022-12-11T01:49:13.797Z,32.42
2022-12-11T01:51:48.758Z,29.88
2022-12-11T01:54:18.525Z,31.45
2022-12-11T01:56:46.466Z,29.17
2022-12-11T01:59:15.792Z,28.75
2022-12-11T02:01:54.581Z,29.88
2022-12-11T02:04:21.302Z,28.58
2022-12-11T02:06:50.618Z,28.50
2022-12-11T02:09:20.639Z,29.13
2022-12-11T02:11:55.013Z,28.65
2022-12-11T02:14:43.335Z,30.42
2022-12-11T02:17:19.451Z,30.45
2022-12-11T02:20:08.271Z,31.63
2022-12-11T02:22:51.674Z,33.17
2022-12-11T02:25:43.101Z,33.33
2022-12-11T02:28:20.976Z,30.10
2022-12-11T02:30:51.589Z,31.58
2022-12-11T02:33:23.364Z,31.92
2022-12-11T02:35:50.523Z,31.65
2022-12-11T02:38:24.341Z,30.83
2022-12-11T02:40:53.536Z,31.92
2022-12-11T02:43:22.357Z,29.73
2022-12-11T02:45:51.258Z,31.02
2022-12-11T02:48:20.296Z,31.52
2022-12-11T02:50:48.865Z,30.55
2022-12-11T02:53:19.658Z,28.42
2022-12-11T02:55:49.938Z,28.75
2022-12-11T02:58:19.542Z,27.58
2022-12-11T03:00:46.379Z,27.52
2022-12-11T03:03:13.840Z,29.20
2022-12-11T03:05:41.919Z,28.70
2022-12-11T03:08:08.400Z,27.90
2022-12-11T03:10:35.103Z,29.02
2022-12-11T03:13:02.973Z,25.42
2022-12-11T03:15:41.549Z,27.25
2022-12-11T03:18:17.627Z,27.00
2022-12-11T03:20:47.502Z,26.95
2022-12-11T03:23:35.443Z,26.42
2022-12-11T03:26:04.508Z,27.00
2022-12-11T03:28:49.234Z,25.30
2022-12-11T03:31:45.593Z,26.15
2022-12-11T03:34:41.480Z,25.70
2022-12-11T03:37:09.618Z,26.05
2022-12-11T03:39:41.141Z,25.27
2022-12-11T03:42:11.771Z,24.65
2022-12-11T03:44:38.459Z,27.95
2022-12-11T03:47:08.228Z,25.83
2022-12-11T03:49:41.812Z,26.42
2022-12-11T03:52:12.171Z,26.40
2022-12-11T03:54:40.640Z,26.02
2022-12-11T03:57:08.376Z,26.65
2022-12-11T03:59:34.818Z,26.73
2022-12-11T04:02:01.336Z,27.02
2022-12-11T04:04:28.050Z,27.55
2022-12-11T04:06:54.451Z,24.77
2022-12-11T04:09:20.812Z,26.65
2022-12-11T04:11:47.198Z,26.35
2022-12-11T04:14:33.306Z,25.50
2022-12-11T04:17:01.208Z,26.20
2022-12-11T04:19:46.235Z,26.98
2022-12-11T04:22:33.179Z,25.92
2022-12-11T04:25:00.554Z,26.42
2022-12-11T04:27:45.865Z,25.38
2022-12-11T04:30:24.662Z,26.10
2022-12-11T04:32:54.252Z,26.20
2022-12-11T04:35:21.062Z,25.92
2022-12-11T04:37:47.548Z,25.95
2022-12-11T04:40:17.260Z,25.80
2022-12-11T04:42:43.698Z,29.77
2022-12-11T04:45:11.636Z,28.90
2022-12-11T04:47:39.632Z,26.30
2022-12-11T04:50:07.748Z,25.75
2022-12-11T04:52:34.182Z,25.90
2022-12-11T04:55:00.490Z,25.83
2022-12-11T04:57:26.809Z,25.63
2022-12-11T04:59:53.141Z,27.48
2022-12-11T05:02:19.566Z,27.20
2022-12-11T05:04:46.028Z,26.77
2022-12-11T05:07:12.404Z,26.95
2022-12-11T05:09:38.783Z,26.05
2022-12-11T05:12:05.271Z,26.60
2022-12-11T05:14:32.353Z,25.88
2022-12-11T05:16:59.530Z,25.60
2022-12-11T05:19:26.767Z,26.08
2022-12-11T05:21:53.301Z,26.00
2022-12-11T05:24:19.791Z,24.90
2022-12-11T05:26:46.166Z,26.00
2022-12-11T05:29:12.551Z,25.90
2022-12-11T05:31:38.993Z,24.77
2022-12-11T05:34:05.379Z,24.48
2022-12-11T05:36:33.670Z,25.63
2022-12-11T05:39:01.137Z,24.42
2022-12-11T05:41:29.469Z,24.73
2022-12-11T05:43:56.144Z,23.88
2022-12-11T05:46:25.332Z,23.52
2022-12-11T05:48:54.837Z,23.50
2022-12-11T05:51:21.359Z,23.48
2022-12-11T05:53:49.546Z,22.02
2022-12-11T05:56:19.633Z,21.55
2022-12-11T05:58:47.642Z,21.55
2022-12-11T06:01:26.390Z,22.85
2022-12-11T06:03:54.124Z,22.25
2022-12-11T06:06:21.014Z,21.02
2022-12-11T06:08:51.153Z,20.02
2022-12-11T06:11:23.571Z,19.70
2022-12-11T06:13:50.469Z,17.60
2022-12-11T06:16:16.807Z,19.13
2022-12-11T06:18:44.792Z,17.83
2022-12-11T06:21:15.768Z,18.25
2022-12-11T06:23:43.121Z,17.90
2022-12-11T06:26:10.653Z,17.70
2022-12-11T06:28:37.602Z,19.40
2022-12-11T06:31:05.225Z,18.02
2022-12-11T06:33:31.936Z,18.13
2022-12-11T06:36:05.582Z,17.38
2022-12-11T06:38:32.213Z,16.67
2022-12-11T06:41:00.933Z,17.60
2022-12-11T06:43:27.246Z,17.30
2022-12-11T06:45:54.509Z,16.58
2022-12-11T06:48:23.547Z,16.83
2022-12-11T06:50:49.941Z,16.45
2022-12-11T06:53:17.821Z,16.77
2022-12-11T06:55:44.239Z,16.90
2022-12-11T06:58:11.456Z,16.35
2022-12-11T07:00:38.921Z,17.02
2022-12-11T07:03:05.673Z,19.13
2022-12-11T07:05:32.797Z,17.70
2022-12-11T07:07:59.616Z,17.92
2022-12-11T07:10:26.230Z,17.33
2022-12-11T07:12:53.505Z,17.88
2022-12-11T07:15:19.990Z,16.92
2022-12-11T07:17:46.710Z,18.27
2022-12-11T07:20:13.084Z,16.65
2022-12-11T07:22:45.997Z,16.70
2022-12-11T07:25:13.243Z,16.70
2022-12-11T07:27:39.805Z,17.52
2022-12-11T07:30:06.709Z,17.95
2022-12-11T07:32:33.365Z,17.38
2022-12-11T07:34:59.800Z,17.20
2022-12-11T07:37:26.119Z,18.00
2022-12-11T07:39:52.537Z,17.35
2022-12-11T07:42:18.924Z,16.73
2022-12-11T07:44:45.354Z,16.65
2022-12-11T07:47:11.690Z,17.23
2022-12-11T07:49:38.283Z,17.17
2022-12-11T07:52:04.783Z,15.63
2022-12-11T07:54:35.362Z,17.55
2022-12-11T07:57:17.814Z,16.27
2022-12-11T07:59:46.479Z,16.77
2022-12-11T08:02:15.198Z,16.63
2022-12-11T08:04:41.641Z,16.48
2022-12-11T08:07:12.630Z,15.88
2022-12-11T08:09:39.042Z,15.98
2022-12-11T08:12:05.794Z,15.05
2022-12-11T08:14:32.136Z,14.85
2022-12-11T08:17:00.124Z,14.60
2022-12-11T08:19:26.585Z,14.90
2022-12-11T08:21:52.953Z,13.63
2022-12-11T08:24:20.860Z,13.80
2022-12-11T08:26:48.082Z,13.52
2022-12-11T08:29:14.957Z,12.95
2022-12-11T08:31:41.912Z,12.57
2022-12-11T08:34:08.308Z,13.05
2022-12-11T08:36:34.789Z,13.23
2022-12-11T08:39:01.160Z,12.98
2022-12-11T08:41:30.132Z,13.38
2022-12-11T08:43:58.450Z,13.43
2022-12-11T08:46:27.413Z,13.18
2022-12-11T08:48:55.066Z,13.30
2022-12-11T08:51:24.609Z,12.52
2022-12-11T08:54:01.382Z,12.20
2022-12-11T08:56:29.135Z,11.43
2022-12-11T08:58:55.905Z,11.80
2022-12-11T09:01:25.008Z,12.88
2022-12-11T09:03:52.683Z,12.90
2022-12-11T09:06:21.060Z,13.32
2022-12-11T09:08:52.520Z,13.32
2022-12-11T09:11:25.756Z,13.55
2022-12-11T09:13:53.983Z,13.02
2022-12-11T09:16:23.195Z,13.75
2022-12-11T09:18:51.474Z,13.32
2022-12-11T09:21:20.469Z,14.45
2022-12-11T09:23:47.324Z,12.73
2022-12-11T09:26:16.597Z,14.80
2022-12-11T09:28:46.720Z,15.23
2022-12-11T09:31:16.965Z,15.70
2022-12-11T09:33:44.125Z,15.73
2022-12-11T09:36:12.047Z,15.85
2022-12-11T09:38:39.553Z,16.77
2022-12-11T09:41:21.385Z,15.60
2022-12-11T09:44:02.839Z,14.85
2022-12-11T09:46:34.017Z,15.10
2022-12-11T09:49:04.539Z,14.40
2022-12-11T09:51:39.916Z,13.85
2022-12-11T09:54:06.528Z,12.20
2022-12-11T09:56:39.192Z,13.10
2022-12-11T09:59:16.973Z,15.13
2022-12-11T10:01:53.879Z,15.23
2022-12-11T10:04:39.133Z,17.13
2022-12-11T10:07:30.259Z,17.73
2022-12-11T10:09:56.601Z,16.98
2022-12-11T10:12:29.275Z,17.52
2022-12-11T10:15:10.646Z,17.85
2022-12-11T10:17:38.906Z,17.67
2022-12-11T10:20:28.693Z,18.38
2022-12-11T10:22:56.931Z,17.30
2022-12-11T10:25:34.299Z,17.95
2022-12-11T10:28:11.466Z,18.63
2022-12-11T10:30:40.886Z,18.58
2022-12-11T10:33:22.676Z,17.00
2022-12-11T10:35:54.804Z,17.45
2022-12-11T10:38:38.252Z,16.55
2022-12-11T10:41:11.221Z,17.13
2022-12-11T10:43:40.276Z,17.65
2022-12-11T10:46:18.086Z,17.08
2022-12-11T10:48:53.751Z,18.40
2022-12-11T10:51:24.449Z,15.40
2022-12-11T10:54:02.600Z,16.55
2022-12-11T10:56:34.035Z,16.50
2022-12-11T10:59:01.248Z,16.90
2022-12-11T11:01:29.796Z,16.65
2022-12-11T11:04:21.135Z,15.88
2022-12-11T11:06:48.863Z,16.70
2022-12-11T11:09:35.510Z,17.80
2022-12-11T11:12:07.592Z,18.00
2022-12-11T11:14:34.486Z,16.10
2022-12-11T11:17:01.351Z,16.73
2022-12-11T11:19:32.294Z,17.13
2022-12-11T11:22:14.200Z,16.08
2022-12-11T11:24:44.672Z,16.15
2022-12-11T11:27:26.999Z,16.10
2022-12-11T11:29:59.556Z,15.02
2022-12-11T11:32:33.135Z,14.93
2022-12-11T11:35:26.549Z,15.55
2022-12-11T11:38:19.075Z,13.95
2022-12-11T11:41:06.619Z,13.57
2022-12-11T11:43:55.585Z,14.05
2022-12-11T11:46:36.579Z,12.95
2022-12-11T11:49:24.850Z,13.93
2022-12-11T11:52:01.575Z,14.88
2022-12-11T11:54:55.341Z,15.20
2022-12-11T11:57:42.410Z,14.83
2022-12-11T12:00:30.220Z,13.93
2022-12-11T12:03:03.444Z,13.40
2022-12-11T12:05:45.054Z,14.30
2022-12-11T12:08:33.752Z,11.93
2022-12-11T12:11:41.762Z,11.82
2022-12-11T12:17:23.324Z,11.25
2022-12-11T12:19:57.174Z,10.95
2022-12-11T12:22:57.310Z,11.20
2022-12-11T12:25:28.552Z,12.20
2022-12-11T12:28:16.145Z,12.07
2022-12-11T12:30:59.734Z,12.25
2022-12-11T12:33:48.331Z,11.43
2022-12-11T12:36:24.412Z,11.02
2022-12-11T12:39:02.012Z,11.57
2022-12-11T12:41:54.674Z,11.25
2022-12-11T12:44:23.785Z,11.20
2022-12-11T12:47:15.075Z,11.60
2022-12-11T12:49:48.666Z,12.40
2022-12-11T12:52:21.795Z,12.38
2022-12-11T12:55:12.433Z,12.47
2022-12-11T12:57:41.879Z,11.85
2022-12-11T13:00:14.818Z,13.57
2022-12-11T13:02:50.238Z,12.88
2022-12-11T13:05:25.350Z,12.95
2022-12-11T13:07:58.063Z,12.88
2022-12-11T13:10:28.563Z,14.10
2022-12-11T13:12:55.167Z,13.95
2022-12-11T13:15:38.915Z,12.13
2022-12-11T13:18:33.930Z,11.88
2022-12-11T13:21:00.920Z,12.02
2022-12-11T13:23:33.912Z,11.63
2022-12-11T13:26:03.192Z,10.80
2022-12-11T13:28:38.736Z,12.43
2022-12-11T13:31:25.509Z,12.25
2022-12-11T13:33:54.637Z,11.50
2022-12-11T13:36:24.509Z,11.68
2022-12-11T13:38:55.376Z,11.63
2022-12-11T13:41:22.408Z,12.52
2022-12-11T13:43:50.302Z,12.60
2022-12-11T13:46:24.511Z,12.55
2022-12-11T13:49:03.561Z,13.10
2022-12-11T13:51:32.344Z,11.65
2022-12-11T13:54:17.626Z,12.50
2022-12-11T13:57:13.247Z,13.30
2022-12-11T13:59:46.488Z,13.00
2022-12-11T14:02:22.553Z,13.63
2022-12-11T14:04:51.577Z,13.82
2022-12-11T14:07:26.094Z,13.77
2022-12-11T14:09:56.899Z,14.23
2022-12-11T14:12:23.312Z,13.65
2022-12-11T14:15:01.974Z,14.25
2022-12-11T14:17:32.118Z,13.10
2022-12-11T14:20:01.979Z,14.18
2022-12-11T14:22:30.422Z,13.20
2022-12-11T14:25:05.307Z,14.30
2022-12-11T14:27:31.737Z,13.02
2022-12-11T14:29:58.467Z,13.13
2022-12-11T14:32:43.421Z,13.45
2022-12-11T14:35:24.693Z,13.45
2022-12-11T14:37:52.917Z,13.73
2022-12-11T14:40:25.253Z,14.32
2022-12-11T14:43:04.221Z,15.32
2022-12-11T14:45:40.575Z,15.73
2022-12-11T14:48:20.489Z,14.30
2022-12-11T14:50:52.405Z,14.02
2022-12-11T14:53:25.750Z,15.18
2022-12-11T14:55:53.221Z,15.25
2022-12-11T14:58:27.113Z,13.73
2022-12-11T15:01:28.162Z,13.88
2022-12-11T15:04:16.480Z,14.23
2022-12-11T15:06:45.853Z,13.18
2022-12-11T15:09:27.699Z,14.65
2022-12-11T15:11:57.200Z,13.98
2022-12-11T15:14:25.573Z,14.60
2022-12-11T15:16:56.054Z,14.95
2022-12-11T15:19:28.725Z,14.55
2022-12-11T15:21:55.458Z,15.25
2022-12-11T15:24:35.239Z,14.18
2022-12-11T15:27:01.731Z,15.82
2022-12-11T15:29:38.421Z,16.15
2022-12-11T15:32:04.730Z,16.02
2022-12-11T15:34:50.688Z,16.65
2022-12-11T15:37:23.182Z,15.40
2022-12-11T15:39:50.268Z,14.85
2022-12-11T15:42:24.892Z,14.85
2022-12-11T15:44:51.709Z,15.43
2022-12-11T15:47:24.756Z,15.23
2022-12-11T15:49:55.669Z,16.43
2022-12-11T15:52:22.094Z,15.80
2022-12-11T15:54:48.416Z,15.30
2022-12-11T15:57:19.155Z,15.05
2022-12-11T15:59:48.629Z,15.52
2022-12-11T16:02:15.450Z,15.32
2022-12-11T16:04:41.835Z,14.65
2022-12-11T16:07:17.608Z,14.70
2022-12-11T16:09:45.079Z,14.95
2022-12-11T16:12:11.896Z,15.75
2022-12-11T16:14:39.131Z,14.55
2022-12-11T16:17:07.193Z,15.25
2022-12-11T16:19:34.510Z,15.50
2022-12-11T16:22:01.009Z,14.45
2022-12-11T16:24:27.908Z,13.32
2022-12-11T16:26:56.115Z,14.45
2022-12-11T16:29:22.957Z,15.10
2022-12-11T16:31:49.425Z,14.90
2022-12-11T16:34:16.226Z,14.68
2022-12-11T16:36:42.750Z,14.70
2022-12-11T16:39:12.049Z,15.38
2022-12-11T16:41:38.786Z,15.13
2022-12-11T16:44:05.601Z,16.70
2022-12-11T16:46:32.322Z,16.35
2022-12-11T16:48:58.807Z,15.02
2022-12-11T16:51:25.213Z,14.43
2022-12-11T16:53:51.819Z,14.38
2022-12-11T16:56:18.264Z,14.85
2022-12-11T16:58:44.630Z,14.32
2022-12-11T17:01:15.490Z,15.15
2022-12-11T17:03:43.436Z,14.65
2022-12-11T17:06:12.016Z,15.23
2022-12-11T17:08:39.342Z,15.57
2022-12-11T17:11:07.597Z,14.63
2022-12-11T17:13:36.355Z,15.73
2022-12-11T17:16:08.397Z,14.95
2022-12-11T17:18:35.311Z,14.93
2022-12-11T17:21:10.144Z,16.63
2022-12-11T17:23:36.676Z,17.52
2022-12-11T17:26:04.477Z,15.90
2022-12-11T17:28:31.524Z,13.57
2022-12-11T17:30:58.249Z,14.93
2022-12-11T17:33:26.324Z,14.35
2022-12-11T17:35:52.738Z,15.25
2022-12-11T17:38:19.118Z,13.13
2022-12-11T17:40:45.899Z,14.50
2022-12-11T17:43:12.538Z,14.38
2022-12-11T17:45:43.478Z,13.02
2022-12-11T17:48:10.262Z,14.73
2022-12-11T17:50:41.564Z,15.93
2022-12-11T17:53:09.331Z,16.58
2022-12-11T17:55:38.086Z,16.05
2022-12-11T17:58:05.445Z,18.98
2022-12-11T18:00:33.536Z,15.90
2022-12-11T18:02:59.955Z,15.48
2022-12-11T18:05:26.299Z,15.32
2022-12-11T18:07:57.527Z,15.32
2022-12-11T18:10:24.942Z,16.38
2022-12-11T18:12:51.351Z,15.93
2022-12-11T18:15:20.554Z,16.88
2022-12-11T18:17:47.130Z,15.75
2022-12-11T18:20:16.626Z,14.93
2022-12-11T18:22:43.467Z,15.90
2022-12-11T18:25:11.972Z,16.25
2022-12-11T18:27:38.891Z,16.00
2022-12-11T18:30:05.939Z,16.27
2022-12-11T18:32:35.196Z,16.17
2022-12-11T18:35:02.499Z,15.65
2022-12-11T18:37:28.825Z,17.20
2022-12-11T18:39:55.158Z,16.85
2022-12-11T18:42:32.864Z,17.30
2022-12-11T18:44:59.762Z,17.23
2022-12-11T18:47:26.242Z,18.67
2022-12-11T18:49:52.590Z,18.80
2022-12-11T18:52:18.913Z,19.20
2022-12-11T18:54:45.714Z,19.88
2022-12-11T18:57:12.037Z,18.10
2022-12-11T18:59:38.893Z,18.85
2022-12-11T19:02:05.428Z,16.60
2022-12-11T19:04:32.628Z,19.95
2022-12-11T19:07:00.695Z,19.67
2022-12-11T19:09:27.282Z,20.25
2022-12-11T19:11:53.751Z,18.20
2022-12-11T19:14:20.209Z,19.95
2022-12-11T19:16:46.568Z,18.48
2022-12-11T19:19:18.268Z,18.35
2022-12-11T19:21:46.031Z,18.13
2022-12-11T19:24:19.083Z,18.80
2022-12-11T19:26:45.696Z,20.13
2022-12-11T19:29:21.236Z,18.80
2022-12-11T19:31:47.951Z,19.25
2022-12-11T19:34:15.245Z,19.30
2022-12-11T19:36:46.520Z,19.23
2022-12-11T19:39:14.327Z,18.90
2022-12-11T19:41:41.400Z,18.20
2022-12-11T19:44:08.364Z,19.00
2022-12-11T19:46:35.444Z,18.45
2022-12-11T19:49:02.153Z,18.67
2022-12-11T19:51:34.217Z,18.48
2022-12-11T19:54:04.454Z,18.20
2022-12-11T19:56:31.644Z,18.13
2022-12-11T19:58:58.748Z,18.40
2022-12-11T20:01:30.056Z,18.73
2022-12-11T20:04:03.075Z,18.70
2022-12-11T20:06:34.463Z,20.17
2022-12-11T20:09:01.888Z,19.67
2022-12-11T20:11:34.888Z,19.75
2022-12-11T20:14:01.248Z,19.10
2022-12-11T20:16:53.867Z,20.13
2022-12-11T20:19:14.660Z,19.42
2022-12-11T20:21:42.088Z,21.00
2022-12-11T20:24:09.358Z,21.67
2022-12-11T20:26:37.962Z,21.23
2022-12-11T20:29:07.236Z,19.10
2022-12-11T20:31:34.013Z,21.70
2022-12-11T20:34:00.407Z,20.83
2022-12-11T20:36:26.808Z,20.20
2022-12-11T20:38:53.335Z,21.15
2022-12-11T20:41:22.304Z,22.27
2022-12-11T20:43:49.938Z,21.08
2022-12-11T20:46:20.876Z,20.40
2022-12-11T20:48:47.899Z,22.10
2022-12-11T20:51:19.669Z,21.65
2022-12-11T20:53:57.341Z,20.27
2022-12-11T20:56:25.659Z,22.65
2022-12-11T20:58:52.171Z,21.05
2022-12-11T21:01:22.445Z,21.10
2022-12-11T21:03:49.335Z,21.38
2022-12-11T21:06:26.276Z,20.90
2022-12-11T21:08:53.615Z,21.10
2022-12-11T21:11:20.476Z,20.90
2022-12-11T21:13:46.917Z,21.05
2022-12-11T21:16:13.365Z,19.98
2022-12-11T21:18:39.831Z,21.20
2022-12-11T21:21:06.504Z,22.27
2022-12-11T21:23:33.685Z,21.67
2022-12-11T21:26:00.569Z,22.02
2022-12-11T21:28:30.560Z,21.42
2022-12-11T21:31:11.137Z,16.37
2022-12-11T21:33:37.584Z,20.38
2022-12-11T21:36:06.151Z,20.48
2022-12-11T21:38:33.244Z,21.02
2022-12-11T21:41:10.410Z,21.25
2022-12-11T21:43:42.787Z,21.08
2022-12-11T21:46:25.386Z,20.08
2022-12-11T21:48:52.152Z,21.25
2022-12-11T21:51:24.794Z,21.10
2022-12-11T21:53:51.849Z,18.90
2022-12-11T21:56:20.447Z,20.60
2022-12-11T21:58:48.370Z,23.38
2022-12-11T22:01:40.713Z,25.45
2022-12-11T22:04:08.199Z,23.95
2022-12-11T22:06:35.198Z,24.20
2022-12-11T22:09:01.871Z,23.90
2022-12-11T22:11:31.110Z,23.77
2022-12-11T22:13:57.954Z,24.02
2022-12-11T22:16:24.632Z,23.58
2022-12-11T22:18:51.014Z,35.55
2022-12-11T22:21:17.525Z,28.58
2022-12-11T22:23:44.704Z,28.73
2022-12-11T22:26:17.830Z,25.58
2022-12-11T22:28:44.135Z,25.50
2022-12-11T22:31:12.585Z,25.15
2022-12-11T22:33:39.280Z,24.95
2022-12-11T22:36:06.408Z,24.38
2022-12-11T22:38:34.623Z,23.10
2022-12-11T22:41:27.633Z,22.70
2022-12-11T22:43:54.798Z,22.90
2022-12-11T22:46:24.593Z,23.48
2022-12-11T22:48:51.649Z,22.55
2022-12-11T22:51:18.224Z,22.35
2022-12-11T22:53:44.723Z,23.05
2022-12-11T22:56:13.216Z,23.35
2022-12-11T22:58:40.419Z,23.70
2022-12-11T23:01:12.255Z,25.00
2022-12-11T23:03:39.056Z,23.25
2022-12-11T23:06:07.963Z,23.08
2022-12-11T23:08:35.163Z,23.85
2022-12-11T23:11:02.370Z,25.42
2022-12-11T23:13:28.952Z,23.52
2022-12-11T23:15:55.309Z,23.63
2022-12-11T23:18:21.635Z,26.52
2022-12-11T23:20:49.271Z,28.65
2022-12-11T23:23:15.668Z,28.45
2022-12-11T23:25:42.090Z,27.95
2022-12-11T23:28:08.431Z,28.20
2022-12-11T23:30:35.109Z,28.50
2022-12-11T23:33:01.507Z,28.27
2022-12-11T23:35:27.867Z,27.25
2022-12-11T23:37:54.241Z,29.00
2022-12-11T23:40:20.560Z,27.70
2022-12-11T23:42:46.949Z,27.58
2022-12-11T23:45:13.519Z,27.33
2022-12-11T23:47:43.164Z,26.50
2022-12-11T23:50:09.878Z,24.83
2022-12-11T23:52:36.256Z,26.25
2022-12-11T23:55:02.733Z,23.25
2022-12-11T23:57:29.147Z,23.08
2022-12-11T23:59:55.443Z,22.52
